sensor_id;sensor_type;location;lat;lon;timestamp;P1;durP1;ratioP1;P2;durP2;ratioP2
66384;SDS011;53426;55.872;37.462;2023-03-25T00:00:19;7.57;;;4.65;;
66384;SDS011;53426;55.872;37.462;2023-03-25T00:02:46;14.88;;;4.65;;
66384;SDS011;53426;55.872;37.462;2023-03-25T00:05:14;5.05;;;4.13;;
66384;SDS011;53426;55.872;37.462;2023-03-25T00:07:42;4.97;;;4.32;;
66384;SDS011;53426;55.872;37.462;2023-03-25T00:10:09;5.55;;;4.35;;
66384;SDS011;53426;55.872;37.462;2023-03-25T00:12:38;4.47;;;4.03;;
66384;SDS011;53426;55.872;37.462;2023-03-25T00:15:05;6.90;;;4.38;;
66384;SDS011;53426;55.872;37.462;2023-03-25T00:17:32;6.53;;;4.22;;
66384;SDS011;53426;55.872;37.462;2023-03-25T00:20:00;6.28;;;4.97;;
66384;SDS011;53426;55.872;37.462;2023-03-25T00:22:30;9.45;;;4.65;;
66384;SDS011;53426;55.872;37.462;2023-03-25T00:24:55;5.80;;;4.40;;
66384;SDS011;53426;55.872;37.462;2023-03-25T00:27:21;7.30;;;4.40;;
66384;SDS011;53426;55.872;37.462;2023-03-25T00:29:47;4.80;;;4.13;;
66384;SDS011;53426;55.872;37.462;2023-03-25T00:32:13;8.70;;;4.90;;
66384;SDS011;53426;55.872;37.462;2023-03-25T00:34:40;10.88;;;5.05;;
66384;SDS011;53426;55.872;37.462;2023-03-25T00:37:12;5.88;;;4.07;;
66384;SDS011;53426;55.872;37.462;2023-03-25T00:39:42;5.22;;;4.38;;
66384;SDS011;53426;55.872;37.462;2023-03-25T00:42:10;8.02;;;4.45;;
66384;SDS011;53426;55.872;37.462;2023-03-25T00:44:39;7.82;;;4.38;;
66384;SDS011;53426;55.872;37.462;2023-03-25T00:47:05;5.00;;;4.10;;
66384;SDS011;53426;55.872;37.462;2023-03-25T00:49:31;7.22;;;4.55;;
66384;SDS011;53426;55.872;37.462;2023-03-25T00:51:57;6.50;;;4.40;;
66384;SDS011;53426;55.872;37.462;2023-03-25T00:54:23;6.35;;;4.85;;
66384;SDS011;53426;55.872;37.462;2023-03-25T00:56:49;7.00;;;4.53;;
66384;SDS011;53426;55.872;37.462;2023-03-25T00:59:16;4.97;;;4.50;;
66384;SDS011;53426;55.872;37.462;2023-03-25T01:01:42;8.20;;;4.75;;
66384;SDS011;53426;55.872;37.462;2023-03-25T01:04:10;4.90;;;4.07;;
66384;SDS011;53426;55.872;37.462;2023-03-25T01:06:38;5.80;;;4.38;;
66384;SDS011;53426;55.872;37.462;2023-03-25T01:09:09;7.28;;;4.57;;
66384;SDS011;53426;55.872;37.462;2023-03-25T01:11:41;4.55;;;4.15;;
66384;SDS011;53426;55.872;37.462;2023-03-25T01:14:10;8.63;;;5.03;;
66384;SDS011;53426;55.872;37.462;2023-03-25T01:16:39;5.65;;;4.50;;
66384;SDS011;53426;55.872;37.462;2023-03-25T01:19:05;6.75;;;4.07;;
66384;SDS011;53426;55.872;37.462;2023-03-25T01:21:31;5.10;;;4.28;;
66384;SDS011;53426;55.872;37.462;2023-03-25T01:24:04;9.85;;;4.68;;
66384;SDS011;53426;55.872;37.462;2023-03-25T01:26:32;6.30;;;4.63;;
66384;SDS011;53426;55.872;37.462;2023-03-25T01:28:59;6.43;;;4.15;;
66384;SDS011;53426;55.872;37.462;2023-03-25T01:31:24;6.38;;;4.38;;
66384;SDS011;53426;55.872;37.462;2023-03-25T01:33:55;5.03;;;4.53;;
66384;SDS011;53426;55.872;37.462;2023-03-25T01:36:22;5.82;;;4.47;;
66384;SDS011;53426;55.872;37.462;2023-03-25T01:38:49;8.52;;;4.65;;
66384;SDS011;53426;55.872;37.462;2023-03-25T01:41:15;5.95;;;4.35;;
66384;SDS011;53426;55.872;37.462;2023-03-25T01:43:41;7.20;;;5.25;;
66384;SDS011;53426;55.872;37.462;2023-03-25T01:46:25;10.02;;;4.55;;
66384;SDS011;53426;55.872;37.462;2023-03-25T01:48:51;8.65;;;4.50;;
66384;SDS011;53426;55.872;37.462;2023-03-25T01:51:17;4.57;;;4.18;;
66384;SDS011;53426;55.872;37.462;2023-03-25T01:53:49;10.15;;;5.10;;
66384;SDS011;53426;55.872;37.462;2023-03-25T01:56:18;4.50;;;4.10;;
66384;SDS011;53426;55.872;37.462;2023-03-25T01:58:48;6.05;;;4.50;;
66384;SDS011;53426;55.872;37.462;2023-03-25T02:01:17;6.13;;;4.25;;
66384;SDS011;53426;55.872;37.462;2023-03-25T02:03:49;5.20;;;3.97;;
66384;SDS011;53426;55.872;37.462;2023-03-25T02:06:18;4.75;;;4.20;;
66384;SDS011;53426;55.872;37.462;2023-03-25T02:08:51;6.15;;;4.03;;
66384;SDS011;53426;55.872;37.462;2023-03-25T02:11:19;6.75;;;4.43;;
66384;SDS011;53426;55.872;37.462;2023-03-25T02:13:45;9.20;;;4.68;;
66384;SDS011;53426;55.872;37.462;2023-03-25T02:38:10;5.13;;;3.67;;
66384;SDS011;53426;55.872;37.462;2023-03-25T02:41:11;9.18;;;4.03;;
66384;SDS011;53426;55.872;37.462;2023-03-25T02:46:20;5.85;;;4.20;;
66384;SDS011;53426;55.872;37.462;2023-03-25T02:48:50;5.85;;;4.55;;
66384;SDS011;53426;55.872;37.462;2023-03-25T02:51:24;7.38;;;4.13;;
66384;SDS011;53426;55.872;37.462;2023-03-25T02:53:56;4.43;;;3.88;;
66384;SDS011;53426;55.872;37.462;2023-03-25T02:56:26;4.38;;;3.95;;
66384;SDS011;53426;55.872;37.462;2023-03-25T02:58:57;6.18;;;3.72;;
66384;SDS011;53426;55.872;37.462;2023-03-25T03:01:24;8.23;;;4.40;;
66384;SDS011;53426;55.872;37.462;2023-03-25T03:03:55;7.43;;;3.80;;
66384;SDS011;53426;55.872;37.462;2023-03-25T03:06:21;6.18;;;4.50;;
66384;SDS011;53426;55.872;37.462;2023-03-25T03:11:19;5.00;;;4.45;;
66384;SDS011;53426;55.872;37.462;2023-03-25T03:17:08;4.55;;;4.00;;
66384;SDS011;53426;55.872;37.462;2023-03-25T03:19:51;3.97;;;3.10;;
66384;SDS011;53426;55.872;37.462;2023-03-25T03:24:47;4.47;;;3.92;;
66384;SDS011;53426;55.872;37.462;2023-03-25T03:27:25;9.32;;;4.18;;
66384;SDS011;53426;55.872;37.462;2023-03-25T03:30:02;7.35;;;3.88;;
66384;SDS011;53426;55.872;37.462;2023-03-25T03:32:38;10.63;;;4.10;;
66384;SDS011;53426;55.872;37.462;2023-03-25T03:38:56;5.40;;;4.03;;
66384;SDS011;53426;55.872;37.462;2023-03-25T03:41:25;9.85;;;4.22;;
66384;SDS011;53426;55.872;37.462;2023-03-25T03:43:57;5.18;;;4.15;;
66384;SDS011;53426;55.872;37.462;2023-03-25T03:48:55;8.43;;;4.15;;
66384;SDS011;53426;55.872;37.462;2023-03-25T03:51:25;4.45;;;4.03;;
66384;SDS011;53426;55.872;37.462;2023-03-25T03:57:20;3.80;;;3.45;;
66384;SDS011;53426;55.872;37.462;2023-03-25T04:02:16;5.45;;;3.42;;
66384;SDS011;53426;55.872;37.462;2023-03-25T04:04:51;9.15;;;4.07;;
66384;SDS011;53426;55.872;37.462;2023-03-25T04:07:21;11.30;;;4.72;;
66384;SDS011;53426;55.872;37.462;2023-03-25T04:12:40;8.55;;;4.55;;
66384;SDS011;53426;55.872;37.462;2023-03-25T04:15:10;6.13;;;4.35;;
66384;SDS011;53426;55.872;37.462;2023-03-25T04:17:36;4.80;;;4.30;;
66384;SDS011;53426;55.872;37.462;2023-03-25T04:20:03;5.50;;;4.50;;
66384;SDS011;53426;55.872;37.462;2023-03-25T04:22:36;5.05;;;4.30;;
66384;SDS011;53426;55.872;37.462;2023-03-25T04:25:04;3.85;;;3.55;;
66384;SDS011;53426;55.872;37.462;2023-03-25T04:27:30;11.70;;;4.80;;
66384;SDS011;53426;55.872;37.462;2023-03-25T04:29:57;5.97;;;4.28;;
66384;SDS011;53426;55.872;37.462;2023-03-25T04:32:26;4.80;;;4.20;;
66384;SDS011;53426;55.872;37.462;2023-03-25T04:34:54;7.13;;;5.10;;
66384;SDS011;53426;55.872;37.462;2023-03-25T04:37:25;4.60;;;4.25;;
66384;SDS011;53426;55.872;37.462;2023-03-25T04:39:52;6.22;;;4.18;;
66384;SDS011;53426;55.872;37.462;2023-03-25T04:42:24;4.35;;;3.95;;
66384;SDS011;53426;55.872;37.462;2023-03-25T04:44:59;5.32;;;4.82;;
66384;SDS011;53426;55.872;37.462;2023-03-25T04:47:25;7.18;;;4.68;;
66384;SDS011;53426;55.872;37.462;2023-03-25T04:49:51;5.07;;;4.57;;
66384;SDS011;53426;55.872;37.462;2023-03-25T04:52:17;4.68;;;4.28;;
66384;SDS011;53426;55.872;37.462;2023-03-25T04:54:43;5.50;;;4.53;;
66384;SDS011;53426;55.872;37.462;2023-03-25T04:57:09;4.13;;;3.83;;
66384;SDS011;53426;55.872;37.462;2023-03-25T04:59:35;7.22;;;4.88;;
66384;SDS011;53426;55.872;37.462;2023-03-25T05:02:02;5.45;;;4.32;;
66384;SDS011;53426;55.872;37.462;2023-03-25T05:04:38;5.93;;;4.55;;
66384;SDS011;53426;55.872;37.462;2023-03-25T05:07:11;5.90;;;4.70;;
66384;SDS011;53426;55.872;37.462;2023-03-25T05:09:37;6.78;;;5.32;;
66384;SDS011;53426;55.872;37.462;2023-03-25T05:12:03;7.72;;;4.82;;
66384;SDS011;53426;55.872;37.462;2023-03-25T05:14:28;15.48;;;5.25;;
66384;SDS011;53426;55.872;37.462;2023-03-25T05:16:54;13.10;;;5.15;;
66384;SDS011;53426;55.872;37.462;2023-03-25T05:19:23;7.50;;;4.97;;
66384;SDS011;53426;55.872;37.462;2023-03-25T05:21:49;11.15;;;4.72;;
66384;SDS011;53426;55.872;37.462;2023-03-25T05:24:16;6.90;;;4.88;;
66384;SDS011;53426;55.872;37.462;2023-03-25T05:26:42;10.68;;;4.78;;
66384;SDS011;53426;55.872;37.462;2023-03-25T05:29:09;6.18;;;4.95;;
66384;SDS011;53426;55.872;37.462;2023-03-25T05:31:39;8.07;;;5.40;;
66384;SDS011;53426;55.872;37.462;2023-03-25T05:34:06;7.47;;;5.80;;
66384;SDS011;53426;55.872;37.462;2023-03-25T05:36:33;6.57;;;5.13;;
66384;SDS011;53426;55.872;37.462;2023-03-25T05:38:59;6.32;;;4.95;;
66384;SDS011;53426;55.872;37.462;2023-03-25T05:41:26;8.07;;;5.20;;
66384;SDS011;53426;55.872;37.462;2023-03-25T05:44:00;9.00;;;5.95;;
66384;SDS011;53426;55.872;37.462;2023-03-25T05:46:27;6.75;;;5.93;;
66384;SDS011;53426;55.872;37.462;2023-03-25T05:48:55;18.75;;;5.97;;
66384;SDS011;53426;55.872;37.462;2023-03-25T05:51:25;10.57;;;6.38;;
66384;SDS011;53426;55.872;37.462;2023-03-25T05:53:51;10.10;;;5.93;;
66384;SDS011;53426;55.872;37.462;2023-03-25T05:56:18;10.07;;;5.40;;
66384;SDS011;53426;55.872;37.462;2023-03-25T05:58:47;8.25;;;5.65;;
66384;SDS011;53426;55.872;37.462;2023-03-25T06:01:15;9.63;;;5.63;;
66384;SDS011;53426;55.872;37.462;2023-03-25T06:03:42;7.05;;;5.72;;
66384;SDS011;53426;55.872;37.462;2023-03-25T06:06:12;12.27;;;5.78;;
66384;SDS011;53426;55.872;37.462;2023-03-25T06:08:42;8.70;;;5.63;;
66384;SDS011;53426;55.872;37.462;2023-03-25T06:11:09;9.30;;;7.22;;
66384;SDS011;53426;55.872;37.462;2023-03-25T06:13:41;11.52;;;6.07;;
66384;SDS011;53426;55.872;37.462;2023-03-25T06:16:14;7.97;;;5.60;;
66384;SDS011;53426;55.872;37.462;2023-03-25T06:18:45;7.05;;;5.68;;
66384;SDS011;53426;55.872;37.462;2023-03-25T06:21:16;8.55;;;5.90;;
66384;SDS011;53426;55.872;37.462;2023-03-25T06:23:43;9.80;;;6.05;;
66384;SDS011;53426;55.872;37.462;2023-03-25T06:26:09;7.10;;;5.72;;
66384;SDS011;53426;55.872;37.462;2023-03-25T06:28:48;6.80;;;5.93;;
66384;SDS011;53426;55.872;37.462;2023-03-25T06:31:16;10.88;;;6.13;;
66384;SDS011;53426;55.872;37.462;2023-03-25T06:33:53;6.75;;;6.15;;
66384;SDS011;53426;55.872;37.462;2023-03-25T06:36:20;7.40;;;6.53;;
66384;SDS011;53426;55.872;37.462;2023-03-25T06:38:46;18.52;;;5.88;;
66384;SDS011;53426;55.872;37.462;2023-03-25T06:41:15;13.27;;;6.95;;
66384;SDS011;53426;55.872;37.462;2023-03-25T06:43:46;7.78;;;6.47;;
66384;SDS011;53426;55.872;37.462;2023-03-25T06:46:15;9.20;;;7.10;;
66384;SDS011;53426;55.872;37.462;2023-03-25T06:48:59;12.40;;;7.60;;
66384;SDS011;53426;55.872;37.462;2023-03-25T06:51:24;11.93;;;8.43;;
66384;SDS011;53426;55.872;37.462;2023-03-25T06:53:51;11.88;;;7.55;;
66384;SDS011;53426;55.872;37.462;2023-03-25T06:56:17;12.88;;;8.05;;
66384;SDS011;53426;55.872;37.462;2023-03-25T06:58:43;13.77;;;7.97;;
66384;SDS011;53426;55.872;37.462;2023-03-25T07:01:08;15.57;;;8.95;;
66384;SDS011;53426;55.872;37.462;2023-03-25T07:03:35;11.40;;;9.50;;
66384;SDS011;53426;55.872;37.462;2023-03-25T07:06:02;14.77;;;9.40;;
66384;SDS011;53426;55.872;37.462;2023-03-25T07:08:29;18.17;;;9.88;;
66384;SDS011;53426;55.872;37.462;2023-03-25T07:10:59;17.38;;;9.23;;
66384;SDS011;53426;55.872;37.462;2023-03-25T07:13:29;11.40;;;8.40;;
66384;SDS011;53426;55.872;37.462;2023-03-25T07:15:58;14.45;;;10.05;;
66384;SDS011;53426;55.872;37.462;2023-03-25T07:18:25;16.33;;;9.25;;
66384;SDS011;53426;55.872;37.462;2023-03-25T07:21:09;13.73;;;9.68;;
66384;SDS011;53426;55.872;37.462;2023-03-25T07:23:35;14.25;;;10.00;;
66384;SDS011;53426;55.872;37.462;2023-03-25T07:26:01;16.40;;;9.77;;
66384;SDS011;53426;55.872;37.462;2023-03-25T07:28:26;19.42;;;9.50;;
66384;SDS011;53426;55.872;37.462;2023-03-25T07:31:11;19.85;;;10.70;;
66384;SDS011;53426;55.872;37.462;2023-03-25T07:33:39;18.10;;;9.90;;
66384;SDS011;53426;55.872;37.462;2023-03-25T07:36:05;11.40;;;8.93;;
66384;SDS011;53426;55.872;37.462;2023-03-25T07:38:32;13.60;;;10.05;;
66384;SDS011;53426;55.872;37.462;2023-03-25T07:40:58;14.48;;;10.02;;
66384;SDS011;53426;55.872;37.462;2023-03-25T07:43:23;13.18;;;9.52;;
66384;SDS011;53426;55.872;37.462;2023-03-25T07:46:05;14.80;;;9.82;;
66384;SDS011;53426;55.872;37.462;2023-03-25T07:48:31;26.33;;;10.23;;
66384;SDS011;53426;55.872;37.462;2023-03-25T07:51:15;18.48;;;10.15;;
66384;SDS011;53426;55.872;37.462;2023-03-25T07:53:47;10.77;;;8.52;;
66384;SDS011;53426;55.872;37.462;2023-03-25T07:56:13;11.13;;;10.00;;
66384;SDS011;53426;55.872;37.462;2023-03-25T07:58:57;16.20;;;10.63;;
66384;SDS011;53426;55.872;37.462;2023-03-25T08:01:23;16.38;;;10.30;;
66384;SDS011;53426;55.872;37.462;2023-03-25T08:03:50;13.27;;;10.02;;
66384;SDS011;53426;55.872;37.462;2023-03-25T08:06:16;13.52;;;9.95;;
66384;SDS011;53426;55.872;37.462;2023-03-25T08:08:42;14.45;;;10.38;;
66384;SDS011;53426;55.872;37.462;2023-03-25T08:11:08;14.88;;;10.38;;
66384;SDS011;53426;55.872;37.462;2023-03-25T08:13:34;16.75;;;10.95;;
66384;SDS011;53426;55.872;37.462;2023-03-25T08:16:00;19.73;;;10.98;;
66384;SDS011;53426;55.872;37.462;2023-03-25T08:18:26;17.48;;;10.60;;
66384;SDS011;53426;55.872;37.462;2023-03-25T08:21:11;14.98;;;10.57;;
66384;SDS011;53426;55.872;37.462;2023-03-25T08:23:38;14.02;;;10.50;;
66384;SDS011;53426;55.872;37.462;2023-03-25T08:26:04;21.17;;;10.57;;
66384;SDS011;53426;55.872;37.462;2023-03-25T08:28:30;15.18;;;10.50;;
66384;SDS011;53426;55.872;37.462;2023-03-25T08:30:56;18.25;;;11.10;;
66384;SDS011;53426;55.872;37.462;2023-03-25T08:33:23;16.45;;;10.60;;
66384;SDS011;53426;55.872;37.462;2023-03-25T08:36:01;12.90;;;10.40;;
66384;SDS011;53426;55.872;37.462;2023-03-25T08:38:27;20.77;;;11.93;;
66384;SDS011;53426;55.872;37.462;2023-03-25T08:40:58;19.05;;;11.65;;
66384;SDS011;53426;55.872;37.462;2023-03-25T08:43:25;21.83;;;11.68;;
66384;SDS011;53426;55.872;37.462;2023-03-25T08:45:51;20.23;;;12.80;;
66384;SDS011;53426;55.872;37.462;2023-03-25T08:48:55;11.93;;;10.77;;
66384;SDS011;53426;55.872;37.462;2023-03-25T08:51:40;13.98;;;11.52;;
66384;SDS011;53426;55.872;37.462;2023-03-25T08:54:26;16.88;;;11.73;;
66384;SDS011;53426;55.872;37.462;2023-03-25T08:57:11;21.23;;;11.68;;
66384;SDS011;53426;55.872;37.462;2023-03-25T08:59:37;16.05;;;11.98;;
66384;SDS011;53426;55.872;37.462;2023-03-25T09:02:27;19.50;;;12.38;;
66384;SDS011;53426;55.872;37.462;2023-03-25T09:04:53;19.20;;;12.10;;
66384;SDS011;53426;55.872;37.462;2023-03-25T09:07:19;18.13;;;13.13;;
66384;SDS011;53426;55.872;37.462;2023-03-25T09:09:47;22.08;;;12.93;;
66384;SDS011;53426;55.872;37.462;2023-03-25T09:12:13;16.70;;;12.23;;
66384;SDS011;53426;55.872;37.462;2023-03-25T09:14:39;17.13;;;12.40;;
66384;SDS011;53426;55.872;37.462;2023-03-25T09:17:05;13.65;;;11.85;;
66384;SDS011;53426;55.872;37.462;2023-03-25T09:19:49;18.63;;;12.57;;
66384;SDS011;53426;55.872;37.462;2023-03-25T09:25:38;15.10;;;10.63;;
66384;SDS011;53426;55.872;37.462;2023-03-25T09:28:07;19.40;;;12.07;;
66384;SDS011;53426;55.872;37.462;2023-03-25T09:30:52;12.02;;;10.57;;
66384;SDS011;53426;55.872;37.462;2023-03-25T09:33:19;12.57;;;11.00;;
66384;SDS011;53426;55.872;37.462;2023-03-25T09:35:45;22.38;;;10.75;;
66384;SDS011;53426;55.872;37.462;2023-03-25T09:38:11;13.25;;;10.50;;
66384;SDS011;53426;55.872;37.462;2023-03-25T09:40:40;14.13;;;10.93;;
66384;SDS011;53426;55.872;37.462;2023-03-25T09:46:24;17.17;;;11.90;;
66384;SDS011;53426;55.872;37.462;2023-03-25T09:48:51;12.07;;;10.27;;
66384;SDS011;53426;55.872;37.462;2023-03-25T09:51:36;14.90;;;11.75;;
66384;SDS011;53426;55.872;37.462;2023-03-25T09:54:21;12.43;;;11.05;;
66384;SDS011;53426;55.872;37.462;2023-03-25T09:57:11;13.57;;;10.82;;
66384;SDS011;53426;55.872;37.462;2023-03-25T09:59:46;13.98;;;11.35;;
66384;SDS011;53426;55.872;37.462;2023-03-25T10:10:31;12.20;;;10.23;;
66384;SDS011;53426;55.872;37.462;2023-03-25T10:22:08;14.57;;;9.55;;
66384;SDS011;53426;55.872;37.462;2023-03-25T10:24:43;11.98;;;10.27;;
66384;SDS011;53426;55.872;37.462;2023-03-25T10:30:23;14.35;;;10.02;;
66384;SDS011;53426;55.872;37.462;2023-03-25T10:33:01;18.05;;;10.88;;
66384;SDS011;53426;55.872;37.462;2023-03-25T10:35:34;13.10;;;10.75;;
66384;SDS011;53426;55.872;37.462;2023-03-25T10:38:20;14.32;;;11.43;;
66384;SDS011;53426;55.872;37.462;2023-03-25T10:40:51;13.90;;;10.52;;
66384;SDS011;53426;55.872;37.462;2023-03-25T10:43:39;16.85;;;11.07;;
66384;SDS011;53426;55.872;37.462;2023-03-25T10:49:01;15.15;;;10.50;;
66384;SDS011;53426;55.872;37.462;2023-03-25T10:52:04;15.27;;;11.10;;
66384;SDS011;53426;55.872;37.462;2023-03-25T10:57:38;19.23;;;9.35;;
66384;SDS011;53426;55.872;37.462;2023-03-25T11:00:23;11.07;;;9.90;;
66384;SDS011;53426;55.872;37.462;2023-03-25T11:02:50;12.63;;;10.38;;
66384;SDS011;53426;55.872;37.462;2023-03-25T11:05:20;14.02;;;10.63;;
66384;SDS011;53426;55.872;37.462;2023-03-25T11:07:55;15.45;;;10.40;;
66384;SDS011;53426;55.872;37.462;2023-03-25T11:10:29;13.68;;;10.75;;
66384;SDS011;53426;55.872;37.462;2023-03-25T11:12:59;14.63;;;10.52;;
66384;SDS011;53426;55.872;37.462;2023-03-25T11:15:36;12.82;;;11.30;;
66384;SDS011;53426;55.872;37.462;2023-03-25T11:18:06;11.88;;;10.60;;
66384;SDS011;53426;55.872;37.462;2023-03-25T11:20:50;12.93;;;10.20;;
66384;SDS011;53426;55.872;37.462;2023-03-25T11:23:36;13.50;;;10.40;;
66384;SDS011;53426;55.872;37.462;2023-03-25T11:31:36;12.07;;;10.20;;
66384;SDS011;53426;55.872;37.462;2023-03-25T11:34:06;15.45;;;11.38;;
66384;SDS011;53426;55.872;37.462;2023-03-25T11:36:52;16.05;;;10.57;;
66384;SDS011;53426;55.872;37.462;2023-03-25T11:39:33;11.85;;;10.63;;
66384;SDS011;53426;55.872;37.462;2023-03-25T11:42:13;12.45;;;11.15;;
66384;SDS011;53426;55.872;37.462;2023-03-25T11:44:40;17.38;;;11.07;;
66384;SDS011;53426;55.872;37.462;2023-03-25T11:47:07;13.52;;;10.27;;
66384;SDS011;53426;55.872;37.462;2023-03-25T11:49:38;13.57;;;10.85;;
66384;SDS011;53426;55.872;37.462;2023-03-25T11:52:12;15.52;;;10.88;;
66384;SDS011;53426;55.872;37.462;2023-03-25T12:00:05;14.80;;;10.45;;
66384;SDS011;53426;55.872;37.462;2023-03-25T12:02:42;16.35;;;11.00;;
66384;SDS011;53426;55.872;37.462;2023-03-25T12:05:11;13.15;;;11.50;;
66384;SDS011;53426;55.872;37.462;2023-03-25T12:07:40;16.52;;;12.15;;
66384;SDS011;53426;55.872;37.462;2023-03-25T12:10:18;14.57;;;10.65;;
66384;SDS011;53426;55.872;37.462;2023-03-25T12:12:54;12.85;;;11.18;;
66384;SDS011;53426;55.872;37.462;2023-03-25T12:27:27;12.35;;;10.82;;
66384;SDS011;53426;55.872;37.462;2023-03-25T12:35:41;10.80;;;9.38;;
66384;SDS011;53426;55.872;37.462;2023-03-25T12:41:34;10.80;;;9.60;;
66384;SDS011;53426;55.872;37.462;2023-03-25T12:46:57;13.18;;;10.40;;
66384;SDS011;53426;55.872;37.462;2023-03-25T12:58:56;17.13;;;13.50;;
66384;SDS011;53426;55.872;37.462;2023-03-25T13:07:27;15.10;;;11.70;;
66384;SDS011;53426;55.872;37.462;2023-03-25T13:09:34;15.73;;;10.93;;
66384;SDS011;53426;55.872;37.462;2023-03-25T13:12:12;11.80;;;10.38;;
66384;SDS011;53426;55.872;37.462;2023-03-25T13:17:35;17.50;;;10.57;;
66384;SDS011;53426;55.872;37.462;2023-03-25T13:20:23;18.35;;;10.55;;
66384;SDS011;53426;55.872;37.462;2023-03-25T13:22:54;20.70;;;10.93;;
66384;SDS011;53426;55.872;37.462;2023-03-25T13:28:31;25.13;;;10.68;;
66384;SDS011;53426;55.872;37.462;2023-03-25T13:31:04;14.13;;;10.27;;
66384;SDS011;53426;55.872;37.462;2023-03-25T13:33:37;20.10;;;11.10;;
66384;SDS011;53426;55.872;37.462;2023-03-25T13:36:08;15.57;;;10.38;;
66384;SDS011;53426;55.872;37.462;2023-03-25T13:38:53;12.35;;;11.10;;
66384;SDS011;53426;55.872;37.462;2023-03-25T13:46:41;11.88;;;10.13;;
66384;SDS011;53426;55.872;37.462;2023-03-25T13:52:01;17.00;;;10.63;;
66384;SDS011;53426;55.872;37.462;2023-03-25T14:03:17;14.48;;;10.27;;
66384;SDS011;53426;55.872;37.462;2023-03-25T14:05:56;12.57;;;10.75;;
66384;SDS011;53426;55.872;37.462;2023-03-25T14:08:34;14.98;;;10.90;;
66384;SDS011;53426;55.872;37.462;2023-03-25T14:11:28;14.38;;;10.68;;
66384;SDS011;53426;55.872;37.462;2023-03-25T14:14:08;12.77;;;10.32;;
66384;SDS011;53426;55.872;37.462;2023-03-25T14:16:40;12.18;;;10.07;;
66384;SDS011;53426;55.872;37.462;2023-03-25T14:19:16;15.40;;;9.98;;
66384;SDS011;53426;55.872;37.462;2023-03-25T14:21:49;17.10;;;10.20;;
66384;SDS011;53426;55.872;37.462;2023-03-25T14:24:34;13.48;;;10.55;;
66384;SDS011;53426;55.872;37.462;2023-03-25T14:27:06;15.13;;;10.27;;
66384;SDS011;53426;55.872;37.462;2023-03-25T14:29:51;12.98;;;10.57;;
66384;SDS011;53426;55.872;37.462;2023-03-25T14:32:29;13.70;;;9.90;;
66384;SDS011;53426;55.872;37.462;2023-03-25T14:43:17;14.07;;;10.15;;
66384;SDS011;53426;55.872;37.462;2023-03-25T14:49:16;14.70;;;10.40;;
66384;SDS011;53426;55.872;37.462;2023-03-25T14:51:47;15.80;;;9.93;;
66384;SDS011;53426;55.872;37.462;2023-03-25T14:54:19;16.35;;;9.27;;
66384;SDS011;53426;55.872;37.462;2023-03-25T14:59:49;15.43;;;9.52;;
66384;SDS011;53426;55.872;37.462;2023-03-25T15:02:34;18.05;;;10.25;;
66384;SDS011;53426;55.872;37.462;2023-03-25T15:07:43;14.05;;;10.38;;
66384;SDS011;53426;55.872;37.462;2023-03-25T15:10:19;15.20;;;10.60;;
66384;SDS011;53426;55.872;37.462;2023-03-25T15:24:12;19.60;;;10.90;;
66384;SDS011;53426;55.872;37.462;2023-03-25T15:30:07;15.43;;;10.75;;
66384;SDS011;53426;55.872;37.462;2023-03-25T15:32:47;22.58;;;10.65;;
66384;SDS011;53426;55.872;37.462;2023-03-25T15:35:32;12.18;;;9.98;;
66384;SDS011;53426;55.872;37.462;2023-03-25T15:55:36;12.52;;;10.93;;
66384;SDS011;53426;55.872;37.462;2023-03-25T15:58:13;12.35;;;10.88;;
66384;SDS011;53426;55.872;37.462;2023-03-25T16:01:26;14.02;;;9.95;;
66384;SDS011;53426;55.872;37.462;2023-03-25T16:04:08;17.98;;;11.15;;
66384;SDS011;53426;55.872;37.462;2023-03-25T16:06:42;14.32;;;11.40;;
66384;SDS011;53426;55.872;37.462;2023-03-25T16:09:13;15.20;;;11.40;;
66384;SDS011;53426;55.872;37.462;2023-03-25T16:11:44;14.27;;;11.15;;
66384;SDS011;53426;55.872;37.462;2023-03-25T16:14:14;12.27;;;11.02;;
66384;SDS011;53426;55.872;37.462;2023-03-25T16:16:46;14.80;;;10.90;;
66384;SDS011;53426;55.872;37.462;2023-03-25T16:19:15;11.52;;;10.27;;
66384;SDS011;53426;55.872;37.462;2023-03-25T16:22:03;11.38;;;10.23;;
66384;SDS011;53426;55.872;37.462;2023-03-25T16:24:43;12.45;;;9.98;;
66384;SDS011;53426;55.872;37.462;2023-03-25T16:27:11;12.55;;;10.68;;
66384;SDS011;53426;55.872;37.462;2023-03-25T16:29:53;13.32;;;10.70;;
66384;SDS011;53426;55.872;37.462;2023-03-25T16:32:24;12.73;;;10.30;;
66384;SDS011;53426;55.872;37.462;2023-03-25T16:34:55;15.02;;;10.70;;
66384;SDS011;53426;55.872;37.462;2023-03-25T16:37:22;12.80;;;10.55;;
66384;SDS011;53426;55.872;37.462;2023-03-25T16:39:53;12.32;;;10.45;;
66384;SDS011;53426;55.872;37.462;2023-03-25T16:44:46;13.18;;;10.73;;
66384;SDS011;53426;55.872;37.462;2023-03-25T16:47:12;14.00;;;10.57;;
66384;SDS011;53426;55.872;37.462;2023-03-25T16:49:40;18.27;;;10.57;;
66384;SDS011;53426;55.872;37.462;2023-03-25T16:57:41;11.35;;;10.18;;
66384;SDS011;53426;55.872;37.462;2023-03-25T17:00:17;15.88;;;11.20;;
66384;SDS011;53426;55.872;37.462;2023-03-25T17:02:46;11.70;;;10.50;;
66384;SDS011;53426;55.872;37.462;2023-03-25T17:10:30;14.00;;;10.25;;
66384;SDS011;53426;55.872;37.462;2023-03-25T17:13:07;16.48;;;11.95;;
66384;SDS011;53426;55.872;37.462;2023-03-25T17:15:34;13.70;;;11.27;;
66384;SDS011;53426;55.872;37.462;2023-03-25T17:18:21;14.95;;;12.30;;
66384;SDS011;53426;55.872;37.462;2023-03-25T17:20:51;15.95;;;11.40;;
66384;SDS011;53426;55.872;37.462;2023-03-25T17:26:07;12.60;;;10.80;;
66384;SDS011;53426;55.872;37.462;2023-03-25T17:31:40;12.43;;;10.55;;
66384;SDS011;53426;55.872;37.462;2023-03-25T17:34:06;14.95;;;11.10;;
66384;SDS011;53426;55.872;37.462;2023-03-25T17:36:35;13.07;;;11.20;;
66384;SDS011;53426;55.872;37.462;2023-03-25T17:39:04;12.80;;;11.50;;
66384;SDS011;53426;55.872;37.462;2023-03-25T17:41:48;13.27;;;10.83;;
66384;SDS011;53426;55.872;37.462;2023-03-25T17:44:20;19.20;;;11.85;;
66384;SDS011;53426;55.872;37.462;2023-03-25T17:46:46;16.23;;;10.57;;
66384;SDS011;53426;55.872;37.462;2023-03-25T17:49:16;13.00;;;11.48;;
66384;SDS011;53426;55.872;37.462;2023-03-25T17:52:19;11.88;;;10.70;;
66384;SDS011;53426;55.872;37.462;2023-03-25T17:55:04;12.93;;;10.75;;
66384;SDS011;53426;55.872;37.462;2023-03-25T17:57:49;13.13;;;11.73;;
66384;SDS011;53426;55.872;37.462;2023-03-25T18:00:33;16.20;;;12.00;;
66384;SDS011;53426;55.872;37.462;2023-03-25T18:03:00;14.15;;;10.60;;
66384;SDS011;53426;55.872;37.462;2023-03-25T18:05:28;12.30;;;10.98;;
66384;SDS011;53426;55.872;37.462;2023-03-25T18:07:54;12.48;;;10.90;;
66384;SDS011;53426;55.872;37.462;2023-03-25T18:10:20;12.70;;;10.43;;
66384;SDS011;53426;55.872;37.462;2023-03-25T18:12:48;16.15;;;11.48;;
66384;SDS011;53426;55.872;37.462;2023-03-25T18:15:13;12.43;;;10.73;;
66384;SDS011;53426;55.872;37.462;2023-03-25T18:23:47;11.35;;;10.07;;
66384;SDS011;53426;55.872;37.462;2023-03-25T18:26:14;11.77;;;10.52;;
66384;SDS011;53426;55.872;37.462;2023-03-25T18:28:59;12.27;;;10.73;;
66384;SDS011;53426;55.872;37.462;2023-03-25T18:31:44;10.27;;;9.27;;
66384;SDS011;53426;55.872;37.462;2023-03-25T18:34:10;11.20;;;10.02;;